createdAt,value
2019-06-07T00:00:44.554Z,47.82
2019-06-07T00:03:26.625Z,47.87
2019-06-07T00:05:48.506Z,47.92
2019-06-07T00:08:27.054Z,47.73
2019-06-07T00:10:52.343Z,47.78
2019-06-07T00:13:23.417Z,47.75
2019-06-07T00:15:54.482Z,47.77
2019-06-07T00:18:26.232Z,47.74
2019-06-07T00:20:57.396Z,47.63
2019-06-07T00:23:28.527Z,47.68
2019-06-07T00:25:59.542Z,47.74
2019-06-07T00:28:30.631Z,47.79
2019-06-07T00:31:01.698Z,47.78
2019-06-07T00:33:32.790Z,47.81
2019-06-07T00:36:04.129Z,47.71
2019-06-07T00:38:35.208Z,47.70
2019-06-07T00:41:06.258Z,47.66
2019-06-07T00:43:37.335Z,47.67
2019-06-07T00:46:08.395Z,47.68
2019-06-07T00:48:39.516Z,47.81
2019-06-07T00:51:11.620Z,47.71
2019-06-07T00:53:42.730Z,47.61
2019-06-07T00:56:13.904Z,47.55
2019-06-07T00:58:44.970Z,47.59
2019-06-07T01:01:18.837Z,47.56
2019-06-07T01:03:48.861Z,47.58
2019-06-07T01:06:22.970Z,47.71
2019-06-07T01:08:52.771Z,47.77
2019-06-07T01:11:26.009Z,47.84
2019-06-07T01:13:56.579Z,47.82
2019-06-07T01:16:27.716Z,48.02
2019-06-07T01:18:58.739Z,48.09
2019-06-07T01:21:30.124Z,48.14
2019-06-07T01:24:11.502Z,48.13
2019-06-07T01:26:33.912Z,48.01
2019-06-07T01:29:05.067Z,47.99
2019-06-07T01:31:36.156Z,47.94
2019-06-07T01:34:07.210Z,47.91
2019-06-07T01:36:38.267Z,47.88
2019-06-07T01:39:09.368Z,47.89
2019-06-07T01:41:40.429Z,47.96
2019-06-07T01:44:11.513Z,48.07
2019-06-07T01:46:42.566Z,47.99
2019-06-07T01:49:13.648Z,48.00
2019-06-07T01:51:44.703Z,48.08
2019-06-07T01:56:48.540Z,48.16
2019-06-07T01:59:21.928Z,48.15
2019-06-07T02:01:52.374Z,48.07
2019-06-07T02:04:28.870Z,48.14
2019-06-07T02:06:56.215Z,48.13
2019-06-07T02:09:29.911Z,48.14
2019-06-07T02:12:00.059Z,48.30
2019-06-07T02:14:33.597Z,48.30
2019-06-07T02:17:04.866Z,48.12
2019-06-07T02:19:36.002Z,48.13
2019-06-07T02:22:07.066Z,48.07
2019-06-07T02:24:38.171Z,48.13
2019-06-07T02:27:09.214Z,48.16
2019-06-07T02:29:40.298Z,48.32
2019-06-07T02:32:11.376Z,48.29
2019-06-07T02:34:42.428Z,48.19
2019-06-07T02:37:13.503Z,48.12
2019-06-07T02:39:44.591Z,48.17
2019-06-07T02:42:15.689Z,48.18
2019-06-07T02:44:46.811Z,48.24
2019-06-07T02:47:19.801Z,48.20
2019-06-07T02:49:50.862Z,48.23
2019-06-07T02:52:24.248Z,48.31
2019-06-07T02:54:54.751Z,48.28
2019-06-07T02:57:29.287Z,48.23
2019-06-07T03:00:16.793Z,48.17
2019-06-07T03:02:40.367Z,48.19
2019-06-07T03:05:06.537Z,48.17
2019-06-07T03:07:40.235Z,48.11
2019-06-07T03:10:11.750Z,48.21
2019-06-07T03:12:45.247Z,48.29
2019-06-07T03:15:32.626Z,48.34
2019-06-07T03:17:50.968Z,48.32
2019-06-07T03:20:27.601Z,48.34
2019-06-07T03:23:01.909Z,48.51
2019-06-07T03:25:39.234Z,48.51
2019-06-07T03:28:10.432Z,48.45
2019-06-07T03:30:58.136Z,48.49
2019-06-07T03:33:14.285Z,48.46
2019-06-07T03:35:45.368Z,48.42
2019-06-07T03:38:16.793Z,48.38
2019-06-07T03:40:47.874Z,48.39
2019-06-07T03:43:18.919Z,48.60
2019-06-07T03:45:50.033Z,48.73
2019-06-07T03:48:21.115Z,48.76
2019-06-07T03:51:04.109Z,48.87
2019-06-07T03:53:24.975Z,48.90
2019-06-07T03:55:56.103Z,48.94
2019-06-07T03:58:32.609Z,48.93
2019-06-07T04:01:02.115Z,49.00
2019-06-07T04:03:40.085Z,49.13
2019-06-07T04:06:05.596Z,49.20
2019-06-07T04:08:41.384Z,49.10
2019-06-07T04:11:09.435Z,49.12
2019-06-07T04:13:42.631Z,49.21
2019-06-07T04:16:13.276Z,49.33
2019-06-07T04:18:44.365Z,49.47
2019-06-07T04:21:15.422Z,49.55
2019-06-07T04:23:46.500Z,49.65
2019-06-07T04:26:17.604Z,49.69
2019-06-07T04:29:31.569Z,49.81
2019-06-07T04:31:22.287Z,49.82
2019-06-07T04:33:53.471Z,49.80
2019-06-07T04:36:41.809Z,50.00
2019-06-07T04:38:59.300Z,50.20
2019-06-07T04:41:33.618Z,50.20
2019-06-07T04:44:04.831Z,50.30
2019-06-07T04:46:40.758Z,50.43
2019-06-07T04:49:12.257Z,50.51
2019-06-07T04:51:45.242Z,50.65
2019-06-07T04:54:16.361Z,50.72
2019-06-07T04:56:47.459Z,50.76
2019-06-07T05:00:00.292Z,50.88
2019-06-07T05:01:51.309Z,50.89
2019-06-07T05:04:22.587Z,50.86
2019-06-07T05:06:53.664Z,50.98
2019-06-07T05:09:24.759Z,51.03
2019-06-07T05:11:55.828Z,50.97
2019-06-07T05:14:26.899Z,50.86
2019-06-07T05:16:59.265Z,50.88
2019-06-07T05:19:31.208Z,50.93
2019-06-07T05:22:05.022Z,50.93
2019-06-07T05:24:38.479Z,51.00
2019-06-07T05:27:08.693Z,51.22
2019-06-07T05:29:41.653Z,51.05
2019-06-07T05:32:12.661Z,50.99
2019-06-07T05:34:47.344Z,50.95
2019-06-07T05:37:16.533Z,50.98
2019-06-07T05:39:47.596Z,50.78
2019-06-07T05:42:18.651Z,50.67
2019-06-07T05:44:49.841Z,50.72
2019-06-07T05:47:21.041Z,50.74
2019-06-07T05:49:52.131Z,50.35
2019-06-07T05:52:23.217Z,50.67
2019-06-07T05:54:54.300Z,50.58
2019-06-07T05:57:25.356Z,50.53
2019-06-07T05:59:56.461Z,50.29
2019-06-07T06:02:27.532Z,50.04
2019-06-07T06:04:58.720Z,49.96
2019-06-07T06:07:29.877Z,49.84
2019-06-07T06:10:00.939Z,49.69
2019-06-07T06:12:38.216Z,49.10
2019-06-07T06:15:07.408Z,48.82
2019-06-07T06:17:42.666Z,48.75
2019-06-07T06:20:11.423Z,48.34
2019-06-07T06:22:48.755Z,48.00
2019-06-07T06:25:31.406Z,47.82
2019-06-07T06:28:10.039Z,47.73
2019-06-07T06:30:22.892Z,47.43
2019-06-07T06:32:58.102Z,47.23
2019-06-07T06:35:26.747Z,46.97
2019-06-07T06:37:57.831Z,47.12
2019-06-07T06:40:28.902Z,46.56
2019-06-07T06:42:59.989Z,46.30
2019-06-07T06:45:31.058Z,46.46
2019-06-07T06:48:02.177Z,46.26
2019-06-07T06:50:33.254Z,46.53
2019-06-07T06:53:04.318Z,46.29
2019-06-07T06:55:35.434Z,46.06
2019-06-07T06:58:06.507Z,45.82
2019-06-07T07:01:04.118Z,45.68
2019-06-07T07:03:57.419Z,45.56
2019-06-07T07:05:56.364Z,45.27
2019-06-07T07:08:32.620Z,45.44
2019-06-07T07:11:03.653Z,45.19
2019-06-07T07:13:34.753Z,45.15
2019-06-07T07:16:05.887Z,44.90
2019-06-07T07:18:36.959Z,44.62
2019-06-07T07:21:08.039Z,44.64
2019-06-07T07:23:39.121Z,43.75
2019-06-07T07:26:10.234Z,43.80
2019-06-07T07:28:42.987Z,43.68
2019-06-07T07:31:14.099Z,43.87
2019-06-07T07:36:38.808Z,44.09
2019-06-07T07:39:04.523Z,44.02
2019-06-07T07:41:31.303Z,43.73
2019-06-07T07:44:07.126Z,43.80
2019-06-07T07:46:36.755Z,43.79
2019-06-07T07:49:07.825Z,43.59
2019-06-07T07:51:38.891Z,43.27
2019-06-07T07:54:11.222Z,43.09
2019-06-07T07:56:42.400Z,43.05
2019-06-07T07:59:13.491Z,42.90
2019-06-07T08:01:46.011Z,42.17
2019-06-07T08:04:17.213Z,42.26
2019-06-07T08:06:49.031Z,42.59
2019-06-07T08:09:21.025Z,41.78
2019-06-07T08:11:54.870Z,41.35
2019-06-07T08:14:24.849Z,41.47
2019-06-07T08:16:57.895Z,41.39
2019-06-07T08:19:28.759Z,40.96
2019-06-07T08:22:17.546Z,41.35
2019-06-07T08:24:52.989Z,41.42
2019-06-07T08:27:26.719Z,41.93
2019-06-07T08:30:46.327Z,42.05
2019-06-07T08:32:51.506Z,41.76
2019-06-07T08:36:03.595Z,41.66
2019-06-07T08:38:22.128Z,41.59
2019-06-07T08:40:35.797Z,41.71
2019-06-07T08:43:19.943Z,41.70
2019-06-07T08:45:39.703Z,41.81
2019-06-07T08:48:27.556Z,41.25
2019-06-07T08:51:08.885Z,40.85
2019-06-07T08:53:41.269Z,40.78
2019-06-07T08:56:18.745Z,41.02
2019-06-07T08:59:16.544Z,40.71
2019-06-07T09:01:52.090Z,40.51
2019-06-07T09:04:26.980Z,40.25
2019-06-07T09:07:08.918Z,40.17
2019-06-07T09:09:39.401Z,40.10
2019-06-07T09:12:18.981Z,39.85
2019-06-07T09:18:37.982Z,39.47
2019-06-07T09:20:58.207Z,39.54
2019-06-07T09:24:21.291Z,39.28
2019-06-07T09:26:25.891Z,39.24
2019-06-07T09:28:58.446Z,39.21
2019-06-07T09:31:51.181Z,38.97
2019-06-07T09:34:13.708Z,39.17
2019-06-07T09:36:39.956Z,39.01
2019-06-07T09:39:12.691Z,39.03
2019-06-07T09:41:49.641Z,38.63
2019-06-07T09:44:24.739Z,38.75
2019-06-07T09:47:12.939Z,38.74
2019-06-07T09:49:32.213Z,38.69
2019-06-07T09:52:02.216Z,38.88
2019-06-07T09:57:16.697Z,38.50
2019-06-07T09:59:48.048Z,38.55
2019-06-07T10:02:19.188Z,38.57
2019-06-07T10:04:50.295Z,38.51
2019-06-07T10:07:31.280Z,38.77
2019-06-07T10:10:19.831Z,39.06
2019-06-07T10:12:27.073Z,38.93
2019-06-07T10:14:58.719Z,39.17
2019-06-07T10:17:30.753Z,38.86
2019-06-07T10:20:02.575Z,38.57
2019-06-07T10:22:34.642Z,38.20
2019-06-07T10:25:08.507Z,38.10
2019-06-07T10:27:39.770Z,38.29
2019-06-07T10:30:12.239Z,38.54
2019-06-07T10:32:43.284Z,37.99
2019-06-07T10:35:16.424Z,37.77
2019-06-07T10:37:52.363Z,37.68
2019-06-07T10:40:25.306Z,37.42
2019-06-07T10:42:57.429Z,37.42
2019-06-07T10:45:28.604Z,37.63
2019-06-07T10:47:59.617Z,37.59
2019-06-07T10:50:30.718Z,37.48
2019-06-07T10:53:02.338Z,37.35
2019-06-07T10:55:33.537Z,37.27
2019-06-07T10:58:05.002Z,36.95
2019-06-07T11:00:36.380Z,36.97
2019-06-07T11:03:08.041Z,37.00
2019-06-07T11:05:39.322Z,37.15
2019-06-07T11:08:10.441Z,37.13
2019-06-07T11:10:41.460Z,37.17
2019-06-07T11:13:12.547Z,36.97
2019-06-07T11:15:43.630Z,36.83
2019-06-07T11:18:32.487Z,36.98
2019-06-07T11:21:12.185Z,37.02
2019-06-07T11:23:44.516Z,37.03
2019-06-07T11:26:21.660Z,36.92
2019-06-07T11:28:52.763Z,37.03
2019-06-07T11:31:25.932Z,37.02
2019-06-07T11:33:56.707Z,37.25
2019-06-07T11:36:27.910Z,37.26
2019-06-07T11:38:58.973Z,37.21
2019-06-07T11:41:30.060Z,37.17
2019-06-07T11:44:04.175Z,37.03
2019-06-07T11:46:35.246Z,37.13
2019-06-07T11:49:06.691Z,37.07
2019-06-07T11:51:51.822Z,36.81
2019-06-07T11:54:25.472Z,36.50
2019-06-07T11:56:57.262Z,36.68
2019-06-07T11:59:28.315Z,36.63
2019-06-07T12:01:59.422Z,36.61
2019-06-07T12:04:34.802Z,36.57
2019-06-07T12:07:04.468Z,36.57
2019-06-07T12:09:36.514Z,36.12
2019-06-07T12:12:08.208Z,35.80
2019-06-07T12:14:39.360Z,35.69
2019-06-07T12:17:11.238Z,36.03
2019-06-07T12:19:42.375Z,35.93
2019-06-07T12:22:14.048Z,35.82
2019-06-07T12:24:45.425Z,35.61
2019-06-07T12:27:16.730Z,35.60
2019-06-07T12:29:47.959Z,35.65
2019-06-07T12:32:19.609Z,35.58
2019-06-07T12:34:54.075Z,35.46
2019-06-07T12:37:42.081Z,35.55
2019-06-07T12:39:57.913Z,35.39
2019-06-07T12:42:33.512Z,35.44
2019-06-07T12:45:08.935Z,35.44
2019-06-07T12:47:39.205Z,35.04
2019-06-07T12:50:13.382Z,36.28
2019-06-07T12:52:45.777Z,35.59
2019-06-07T12:55:18.156Z,35.44
2019-06-07T12:57:50.178Z,35.20
2019-06-07T13:00:22.711Z,34.79
2019-06-07T13:02:53.886Z,34.61
2019-06-07T13:05:24.922Z,34.35
2019-06-07T13:08:02.175Z,34.29
2019-06-07T13:10:36.070Z,34.28
2019-06-07T13:13:07.138Z,34.45
2019-06-07T13:15:38.223Z,34.34
2019-06-07T13:18:17.446Z,34.37
2019-06-07T13:20:49.103Z,34.34
2019-06-07T13:23:20.847Z,34.13
2019-06-07T13:25:52.282Z,33.87
2019-06-07T13:28:24.619Z,33.82
2019-06-07T13:30:55.871Z,33.83
2019-06-07T13:33:33.933Z,33.75
2019-06-07T13:35:59.731Z,33.70
2019-06-07T13:38:30.820Z,33.73
2019-06-07T13:41:01.874Z,33.81
2019-06-07T13:43:34.331Z,34.04
2019-06-07T13:46:05.411Z,34.14
2019-06-07T13:48:36.496Z,34.16
2019-06-07T13:51:07.558Z,34.37
2019-06-07T13:53:38.642Z,34.42
2019-06-07T13:56:09.700Z,34.74
2019-06-07T13:58:40.802Z,34.91
2019-06-07T14:01:11.863Z,34.95
2019-06-07T14:03:42.932Z,35.03
2019-06-07T14:06:14.012Z,35.20
2019-06-07T14:08:45.073Z,35.41
2019-06-07T14:11:16.152Z,35.22
2019-06-07T14:13:47.223Z,35.16
2019-06-07T14:16:18.314Z,35.28
2019-06-07T14:18:49.370Z,35.22
2019-06-07T14:21:20.491Z,35.26
2019-06-07T14:23:51.542Z,35.23
2019-06-07T14:26:23.212Z,35.21
2019-06-07T14:32:19.082Z,35.00
2019-06-07T14:34:50.162Z,35.06
2019-06-07T14:37:22.688Z,34.97
2019-06-07T14:39:53.888Z,34.86
2019-06-07T14:42:25.373Z,34.78
2019-06-07T14:44:56.535Z,34.69
2019-06-07T14:47:27.940Z,34.76
2019-06-07T14:49:59.058Z,34.75
2019-06-07T14:52:30.671Z,34.81
2019-06-07T14:55:01.877Z,34.75
2019-06-07T14:57:33.666Z,34.64
2019-06-07T15:00:11.461Z,34.65
2019-06-07T15:02:41.966Z,34.65
2019-06-07T15:05:14.634Z,34.72
2019-06-07T15:07:45.693Z,34.79
2019-06-07T15:10:17.077Z,34.89
2019-06-07T15:12:48.216Z,34.78
2019-06-07T15:15:19.479Z,34.94
2019-06-07T15:17:50.580Z,35.10
2019-06-07T15:20:22.694Z,35.13
2019-06-07T15:22:53.773Z,35.14
2019-06-07T15:25:24.928Z,35.18
2019-06-07T15:27:56.019Z,35.30
2019-06-07T15:30:27.444Z,35.47
2019-06-07T15:32:59.796Z,35.45
2019-06-07T15:35:32.142Z,35.50
2019-06-07T15:38:03.399Z,35.55
2019-06-07T15:40:35.267Z,35.53
2019-06-07T15:43:06.516Z,35.68
2019-06-07T15:45:37.838Z,35.79
2019-06-07T15:48:08.960Z,35.74
2019-06-07T15:50:40.443Z,35.71
2019-06-07T15:53:11.782Z,35.89
2019-06-07T15:55:45.629Z,35.80
2019-06-07T15:58:15.652Z,35.78
2019-06-07T16:00:49.920Z,35.90
2019-06-07T16:03:19.513Z,36.01
2019-06-07T16:05:50.573Z,36.13
2019-06-07T16:08:21.648Z,36.05
2019-06-07T16:10:52.727Z,36.00
2019-06-07T16:13:23.818Z,36.09
2019-06-07T16:15:54.872Z,36.08
2019-06-07T16:18:25.953Z,36.05
2019-06-07T16:20:56.995Z,36.04
2019-06-07T16:23:28.068Z,36.06
2019-06-07T16:25:59.112Z,36.11
2019-06-07T16:28:30.190Z,36.12
2019-06-07T16:31:01.277Z,36.08
2019-06-07T16:33:32.327Z,36.01
2019-06-07T16:36:03.391Z,36.02
2019-06-07T16:38:34.453Z,36.11
2019-06-07T16:41:06.367Z,36.19
2019-06-07T16:43:38.592Z,36.31
2019-06-07T16:46:09.742Z,36.35
2019-06-07T16:48:40.933Z,36.40
2019-06-07T16:51:11.963Z,36.43
2019-06-07T16:53:44.453Z,36.48
2019-06-07T16:56:15.691Z,36.52
2019-06-07T16:58:46.741Z,36.50
2019-06-07T17:01:17.815Z,36.54
2019-06-07T17:03:48.889Z,36.63
2019-06-07T17:06:19.940Z,36.69
2019-06-07T17:08:52.896Z,36.69
2019-06-07T17:11:23.955Z,36.78
2019-06-07T17:13:55.014Z,36.85
2019-06-07T17:16:26.085Z,36.82
2019-06-07T17:18:57.162Z,36.87
2019-06-07T17:21:28.309Z,36.95
2019-06-07T17:23:59.382Z,37.06
2019-06-07T17:26:30.419Z,37.12
2019-06-07T17:29:01.493Z,37.09
2019-06-07T17:31:32.566Z,37.10
2019-06-07T17:34:03.643Z,37.14
2019-06-07T17:36:34.745Z,37.23
2019-06-07T17:39:10.281Z,37.20
2019-06-07T17:41:52.392Z,37.27
2019-06-07T17:44:14.247Z,37.35
2019-06-07T17:46:45.582Z,37.39
2019-06-07T17:49:20.587Z,37.46
2019-06-07T17:51:52.259Z,37.56
2019-06-07T17:54:23.375Z,37.62
2019-06-07T17:56:54.452Z,37.67
2019-06-07T17:59:25.499Z,37.74
2019-06-07T18:02:13.614Z,37.77
2019-06-07T18:04:31.992Z,37.89
2019-06-07T18:07:03.137Z,37.90
2019-06-07T18:09:37.094Z,38.00
2019-06-07T18:12:08.169Z,38.07
2019-06-07T18:14:39.217Z,38.14
2019-06-07T18:17:10.336Z,38.25
2019-06-07T18:19:41.409Z,38.36
2019-06-07T18:22:12.462Z,38.43
2019-06-07T18:24:44.422Z,38.50
2019-06-07T18:27:15.472Z,38.53
2019-06-07T18:29:46.555Z,38.59
2019-06-07T18:32:17.596Z,38.62
2019-06-07T18:34:48.768Z,38.69
2019-06-07T18:37:19.799Z,38.76
2019-06-07T18:39:51.118Z,38.83
2019-06-07T18:42:22.209Z,38.89
2019-06-07T18:44:53.281Z,38.99
2019-06-07T18:47:24.349Z,39.05
2019-06-07T18:49:57.991Z,39.10
2019-06-07T18:52:31.163Z,39.15
2019-06-07T18:55:02.239Z,39.24
2019-06-07T18:57:33.335Z,39.41
2019-06-07T19:00:16.767Z,39.40
2019-06-07T19:02:47.873Z,39.47
2019-06-07T19:05:19.244Z,39.59
2019-06-07T19:07:50.497Z,39.63
2019-06-07T19:10:21.911Z,39.70
2019-06-07T19:12:53.298Z,39.75
2019-06-07T19:15:25.599Z,39.83
2019-06-07T19:17:58.023Z,39.92
2019-06-07T19:20:29.776Z,39.98
2019-06-07T19:23:00.820Z,40.06
2019-06-07T19:25:31.881Z,40.11
2019-06-07T19:28:02.967Z,40.19
2019-06-07T19:30:34.143Z,40.27
2019-06-07T19:33:05.178Z,40.35
2019-06-07T19:35:36.231Z,40.48
2019-06-07T19:38:07.282Z,40.47
2019-06-07T19:40:38.378Z,40.47
2019-06-07T19:43:09.427Z,40.53
2019-06-07T19:45:40.568Z,40.58
2019-06-07T19:48:11.625Z,40.64
2019-06-07T19:50:42.700Z,40.71
2019-06-07T19:53:13.812Z,40.80
2019-06-07T19:55:44.869Z,40.88
2019-06-07T19:58:15.972Z,40.98
2019-06-07T20:00:47.477Z,41.00
2019-06-07T20:03:18.577Z,41.10
2019-06-07T20:05:49.631Z,41.22
2019-06-07T20:08:20.679Z,41.50
2019-06-07T20:10:51.752Z,41.56
2019-06-07T20:13:22.808Z,41.64
2019-06-07T20:15:54.713Z,41.86
2019-06-07T20:18:27.958Z,41.86
2019-06-07T20:20:58.694Z,42.08
2019-06-07T20:23:29.757Z,42.29
2019-06-07T20:26:00.846Z,42.41
2019-06-07T20:28:31.890Z,42.42
2019-06-07T20:31:03.937Z,43.16
2019-06-07T20:33:35.151Z,43.66
2019-06-07T20:36:06.201Z,43.73
2019-06-07T20:38:37.275Z,43.46
2019-06-07T20:41:08.325Z,43.46
2019-06-07T20:43:39.394Z,43.82
2019-06-07T20:46:10.468Z,44.83
2019-06-07T20:48:41.525Z,45.79
2019-06-07T20:51:12.595Z,46.65
2019-06-07T20:53:43.679Z,47.36
2019-06-07T20:56:14.724Z,47.50
2019-06-07T20:58:45.806Z,47.99
2019-06-07T21:01:16.877Z,47.99
2019-06-07T21:03:47.922Z,48.90
2019-06-07T21:06:19.013Z,49.34
2019-06-07T21:08:50.046Z,50.04
2019-06-07T21:11:21.120Z,50.32
2019-06-07T21:13:52.186Z,50.72
2019-06-07T21:16:23.240Z,50.86
2019-06-07T21:18:54.307Z,51.16
2019-06-07T21:21:25.358Z,51.71
2019-06-07T21:23:56.426Z,51.74
2019-06-07T21:26:27.490Z,52.14
2019-06-07T21:28:58.538Z,52.42
2019-06-07T21:31:29.594Z,52.56
2019-06-07T21:34:01.378Z,52.88
2019-06-07T21:36:38.796Z,52.95
2019-06-07T21:39:10.297Z,53.05
2019-06-07T21:41:41.409Z,53.20
2019-06-07T21:44:24.743Z,53.14
2019-06-07T21:46:55.813Z,53.22
2019-06-07T21:49:26.889Z,53.05
2019-06-07T21:51:57.969Z,53.59
2019-06-07T21:54:29.278Z,53.88
2019-06-07T21:57:00.354Z,53.94
2019-06-07T21:59:31.419Z,54.11
2019-06-07T22:02:13.618Z,54.29
2019-06-07T22:04:44.853Z,54.59
2019-06-07T22:07:15.925Z,54.92
2019-06-07T22:09:59.245Z,55.18
2019-06-07T22:12:30.335Z,55.32
2019-06-07T22:15:29.095Z,55.11
2019-06-07T22:17:43.241Z,55.26
2019-06-07T22:20:14.789Z,55.27
2019-06-07T22:22:45.877Z,55.28
2019-06-07T22:25:16.988Z,55.42
2019-06-07T22:27:48.085Z,55.65
2019-06-07T22:30:19.277Z,55.68
2019-06-07T22:32:50.371Z,55.72
2019-06-07T22:35:21.522Z,55.93
2019-06-07T22:37:52.607Z,55.98
2019-06-07T22:40:23.682Z,56.11
2019-06-07T22:42:54.733Z,56.21
2019-06-07T22:45:25.817Z,56.56
2019-06-07T22:47:56.883Z,56.51
2019-06-07T22:50:27.969Z,56.56
2019-06-07T22:52:59.031Z,56.72
2019-06-07T22:55:30.111Z,56.83
2019-06-07T22:58:01.242Z,56.88
2019-06-07T23:00:36.647Z,56.81
2019-06-07T23:03:08.522Z,56.95
2019-06-07T23:05:39.650Z,57.08
2019-06-07T23:08:11.051Z,57.17
2019-06-07T23:10:42.413Z,57.17
2019-06-07T23:13:13.659Z,57.30
2019-06-07T23:15:45.752Z,57.31
2019-06-07T23:18:17.693Z,57.23
2019-06-07T23:20:48.797Z,57.32
2019-06-07T23:23:20.068Z,57.27
2019-06-07T23:25:51.122Z,57.35
2019-06-07T23:28:28.044Z,57.42
2019-06-07T23:30:59.189Z,57.40
2019-06-07T23:33:30.248Z,57.37
2019-06-07T23:36:04.534Z,57.45
2019-06-07T23:38:35.606Z,57.44
2019-06-07T23:41:06.664Z,57.43
2019-06-07T23:43:37.778Z,57.57
2019-06-07T23:46:08.837Z,57.64
2019-06-07T23:48:39.915Z,57.65
2019-06-07T23:51:11.480Z,57.68
2019-06-07T23:53:42.656Z,57.65
2019-06-07T23:56:13.843Z,57.63
2019-06-07T23:58:44.886Z,57.70
